Time;durP1;ratioP1;P1;durP2;ratioP2;P2;SDS_P1;SDS_P2;PMS_P1;PMS_P2;Temp;Humidity;BMP_temperature;BMP_pressure;BME280_temperature;BME280_humidity;BME280_pressure;Samples;Min_cycle;Max_cycle;Signal;HPM_P1;HPM_P2
2023/11/01 00:00:44;;;;;;;2.87;1.60;;;;;;;11.83;71.04;99128.00;5052058;28;20669;-67
2023/11/01 00:03:13;;;;;;;1.53;1.40;;;;;;;11.81;71.05;99125.44;5053384;28;20709;-69
2023/11/01 00:05:41;;;;;;;1.50;1.40;;;;;;;11.82;71.38;99144.38;5053247;28;20220;-68
2023/11/01 00:08:09;;;;;;;1.67;1.40;;;;;;;11.78;71.42;99143.63;5053052;28;20284;-68
2023/11/01 00:10:37;;;;;;;3.47;1.33;;;;;;;11.78;71.23;99160.81;5053470;28;20202;-69
2023/11/01 00:13:06;;;;;;;2.20;1.30;;;;;;;11.77;71.49;99169.47;5052937;28;20252;-67
2023/11/01 00:15:34;;;;;;;1.70;1.40;;;;;;;11.74;71.69;99167.81;5053075;28;20280;-68
2023/11/01 00:18:02;;;;;;;2.67;1.43;;;;;;;11.77;71.47;99179.78;5052698;28;20712;-66
2023/11/01 00:20:31;;;;;;;3.47;1.60;;;;;;;11.73;71.56;99188.50;5052362;28;20760;-68
2023/11/01 00:22:59;;;;;;;1.33;1.23;;;;;;;11.68;71.17;99191.25;5051173;28;20206;-67
2023/11/01 00:25:27;;;;;;;2.13;1.30;;;;;;;11.60;71.46;99185.47;5053108;28;20202;-71
2023/11/01 00:27:55;;;;;;;1.47;1.30;;;;;;;11.51;71.49;99183.97;5053049;28;20517;-67
2023/11/01 00:30:25;;;;;;;2.53;1.27;;;;;;;11.44;71.76;99197.09;5052685;28;20217;-68
2023/11/01 00:32:55;;;;;;;1.30;1.17;;;;;;;11.40;72.01;99196.34;5052569;28;20206;-68
2023/11/01 00:35:23;;;;;;;2.17;1.30;;;;;;;11.38;71.95;99200.72;5052554;28;20216;-70
2023/11/01 00:37:51;;;;;;;1.73;0.80;;;;;;;11.31;71.94;99201.78;5052865;28;20287;-67
2023/11/01 00:40:19;;;;;;;1.33;1.20;;;;;;;11.28;71.89;99199.28;5052354;28;20210;-68
2023/11/01 00:42:47;;;;;;;1.47;1.20;;;;;;;11.26;71.66;99193.31;5052539;28;20202;-68
2023/11/01 00:45:15;;;;;;;1.20;1.00;;;;;;;11.24;71.90;99195.09;5052135;28;20328;-67
2023/11/01 00:47:44;;;;;;;0.90;0.80;;;;;;;11.24;71.68;99197.69;5052295;28;20202;-68
2023/11/01 00:50:13;;;;;;;1.90;1.23;;;;;;;11.23;71.44;99203.69;5052846;28;20610;-68
2023/11/01 00:52:41;;;;;;;1.57;1.00;;;;;;;11.23;71.46;99214.88;5051329;28;20271;-66
2023/11/01 00:55:09;;;;;;;1.17;1.07;;;;;;;11.16;71.54;99217.66;5052448;28;20206;-67
2023/11/01 00:57:37;;;;;;;3.07;1.10;;;;;;;11.13;72.02;99227.16;5052440;28;20715;-68
2023/11/01 01:00:07;;;;;;;1.17;0.80;;;;;;;11.09;71.64;99228.16;5052277;28;20684;-69
2023/11/01 01:02:35;;;;;;;1.57;1.10;;;;;;;11.01;71.88;99219.78;5052098;28;20685;-68
2023/11/01 01:05:05;;;;;;;1.33;0.90;;;;;;;11.01;71.98;99236.94;5052255;28;20680;-62
2023/11/01 01:07:33;;;;;;;1.30;1.20;;;;;;;10.93;71.96;99239.72;5051855;28;20240;-65
2023/11/01 01:10:01;;;;;;;1.23;0.80;;;;;;;10.89;71.74;99241.53;5051931;28;20244;-63
2023/11/01 01:12:29;;;;;;;1.30;0.90;;;;;;;10.87;72.13;99245.91;5052192;28;20210;-62
2023/11/01 01:14:57;;;;;;;1.93;1.13;;;;;;;10.86;72.11;99249.38;5051668;28;20293;-62
2023/11/01 01:17:25;;;;;;;2.60;1.00;;;;;;;10.83;72.36;99253.75;5051643;28;20269;-62
2023/11/01 01:19:53;;;;;;;1.57;0.90;;;;;;;10.84;72.32;99245.13;5051606;28;20213;-62
2023/11/01 01:22:22;;;;;;;2.57;0.93;;;;;;;10.81;72.31;99260.66;5050981;28;20659;-62
2023/11/01 01:24:51;;;;;;;1.50;0.90;;;;;;;10.79;72.16;99265.88;5051595;28;20627;-66
2023/11/01 01:27:18;;;;;;;1.20;1.10;;;;;;;10.79;72.18;99262.47;5051755;28;20591;-62
2023/11/01 01:29:47;;;;;;;1.00;0.90;;;;;;;10.80;72.35;99251.25;5051389;28;20214;-63
2023/11/01 01:32:14;;;;;;;1.13;0.87;;;;;;;10.83;72.12;99253.75;5051330;28;20240;-64
2023/11/01 01:34:42;;;;;;;3.07;0.87;;;;;;;10.81;72.27;99242.63;5051414;28;20630;-64
2023/11/01 01:37:10;;;;;;;1.43;0.90;;;;;;;10.83;72.08;99246.03;5051429;28;20198;-62
2023/11/01 01:39:40;;;;;;;0.70;0.60;;;;;;;10.87;72.00;99250.22;5051149;28;20229;-62
2023/11/01 01:42:08;;;;;;;0.80;0.70;;;;;;;10.88;72.10;99245.00;5051522;28;20198;-62
2023/11/01 01:44:36;;;;;;;1.07;0.80;;;;;;;10.89;71.96;99254.44;5051589;28;20699;-62
2023/11/01 01:47:05;;;;;;;1.63;0.70;;;;;;;10.93;71.86;99251.78;5051071;28;20229;-65
2023/11/01 01:49:34;;;;;;;0.87;0.70;;;;;;;10.95;71.70;99253.44;5031529;28;20213;-63
2023/11/01 01:52:12;;;;;;;1.70;0.70;;;;;;;10.96;72.29;99252.53;5044931;28;20231;-64
2023/11/01 01:54:41;;;;;;;0.87;0.80;;;;;;;10.98;71.82;99255.94;5037507;28;20284;-62
2023/11/01 01:57:10;;;;;;;0.80;0.70;;;;;;;10.96;71.60;99252.53;5051315;28;20210;-65
2023/11/01 01:59:39;;;;;;;1.93;0.97;;;;;;;10.97;72.05;99256.84;5050788;28;20198;-64
2023/11/01 02:02:08;;;;;;;1.10;0.80;;;;;;;11.00;71.85;99264.47;5051059;28;20204;-62
2023/11/01 02:04:37;;;;;;;1.63;1.00;;;;;;;11.00;71.92;99268.78;5050692;28;20214;-61
2023/11/01 02:07:05;;;;;;;1.17;0.93;;;;;;;10.97;71.87;99259.41;5048659;28;20201;-62
2023/11/01 02:09:33;;;;;;;0.90;0.90;;;;;;;10.95;72.57;99261.16;5050364;28;20289;-63
2023/11/01 02:12:03;;;;;;;0.73;0.73;;;;;;;10.93;72.27;99262.94;5050746;28;20209;-63
2023/11/01 02:14:31;;;;;;;1.23;1.00;;;;;;;10.89;72.21;99266.47;5050895;28;20198;-63
2023/11/01 02:16:59;;;;;;;0.80;0.80;;;;;;;10.89;72.62;99258.75;5050918;28;20233;-65
2023/11/01 02:19:27;;;;;;;1.17;0.87;;;;;;;10.86;72.38;99261.38;5050438;28;20323;-65
2023/11/01 02:21:54;;;;;;;1.37;0.83;;;;;;;10.80;72.76;99252.09;5050929;28;20711;-65
2023/11/01 02:24:24;;;;;;;0.80;0.80;;;;;;;10.82;72.85;99272.66;5050546;28;20228;-66
2023/11/01 02:26:52;;;;;;;1.27;1.17;;;;;;;10.83;72.59;99276.94;5050863;28;20727;-64
2023/11/01 02:29:22;;;;;;;1.37;0.83;;;;;;;10.83;72.46;99282.94;5050554;28;20209;-66
2023/11/01 02:31:51;;;;;;;0.70;0.70;;;;;;;10.85;72.44;99285.47;5050715;28;20210;-64
2023/11/01 02:34:19;;;;;;;1.87;0.80;;;;;;;10.83;72.41;99282.09;5050620;28;20208;-65
2023/11/01 02:36:48;;;;;;;0.70;0.70;;;;;;;10.82;72.42;99278.66;5049747;28;20210;-65
2023/11/01 02:39:17;;;;;;;1.20;0.60;;;;;;;10.84;72.13;99299.25;5050595;28;20255;-66
2023/11/01 02:41:47;;;;;;;0.57;0.57;;;;;;;10.81;72.18;99289.00;5050672;28;20627;-66
2023/11/01 02:44:14;;;;;;;0.67;0.60;;;;;;;10.83;72.29;99290.69;5050419;28;20263;-65
2023/11/01 02:46:42;;;;;;;1.30;0.87;;;;;;;10.85;72.41;99296.63;5050388;28;20205;-67
2023/11/01 02:49:10;;;;;;;0.50;0.50;;;;;;;10.88;72.23;99293.97;5050372;28;20213;-66
2023/11/01 02:51:38;;;;;;;0.70;0.70;;;;;;;10.90;72.22;99296.53;5049567;28;20202;-66
2023/11/01 02:54:06;;;;;;;0.60;0.57;;;;;;;10.91;72.17;99298.22;5050670;28;20202;-66
2023/11/01 02:56:34;;;;;;;0.73;0.73;;;;;;;10.93;72.56;99303.31;5050801;28;20610;-68
2023/11/01 02:59:04;;;;;;;0.90;0.70;;;;;;;10.95;72.63;99307.56;5050294;28;20206;-65
2023/11/01 03:01:32;;;;;;;1.13;0.90;;;;;;;10.92;72.62;99307.63;5050535;28;20552;-65
2023/11/01 03:04:00;;;;;;;1.30;0.83;;;;;;;10.89;72.89;99307.72;5050448;28;20209;-66
2023/11/01 03:06:28;;;;;;;0.50;0.50;;;;;;;10.92;72.78;99307.63;5049845;28;20198;-66
2023/11/01 03:08:56;;;;;;;1.37;0.80;;;;;;;10.97;73.19;99310.09;5050351;28;20255;-65
2023/11/01 03:11:23;;;;;;;1.03;0.70;;;;;;;10.98;73.20;99304.91;5050168;28;20277;-66
2023/11/01 03:13:51;;;;;;;3.27;0.70;;;;;;;11.00;72.97;99310.03;5050256;28;20210;-67
2023/11/01 03:16:21;;;;;;;2.07;0.80;;;;;;;11.02;73.52;99308.25;5050236;28;20210;-67
2023/11/01 03:18:49;;;;;;;1.17;0.80;;;;;;;11.03;73.26;99310.78;5010691;28;20215;-66
2023/11/01 03:21:16;;;;;;;1.60;0.80;;;;;;;11.00;73.76;99312.59;5010417;28;20251;-66
2023/11/01 03:23:44;;;;;;;1.27;1.00;;;;;;;11.00;73.93;99312.59;5010729;28;20254;-66
2023/11/01 03:26:12;;;;;;;1.20;1.10;;;;;;;10.98;74.21;99320.38;5010963;28;20655;-66
2023/11/01 03:28:41;;;;;;;2.90;1.30;;;;;;;10.97;74.76;99321.28;5010849;28;20673;-63
2023/11/01 03:31:08;;;;;;;2.33;1.27;;;;;;;10.95;74.76;99317.03;5010802;28;20670;-63
2023/11/01 03:33:38;;;;;;;1.67;1.13;;;;;;;10.88;75.13;99326.63;5010627;28;20199;-63
2023/11/01 03:36:07;;;;;;;1.43;1.33;;;;;;;10.91;75.05;99331.72;5011495;28;20585;-64
2023/11/01 03:38:35;;;;;;;2.03;1.67;;;;;;;10.85;75.41;99327.56;5013682;28;20242;-63
2023/11/01 03:41:04;;;;;;;1.93;1.37;;;;;;;10.88;75.42;99340.38;5013989;28;20250;-64
2023/11/01 03:43:33;;;;;;;2.30;1.63;;;;;;;10.89;75.59;99343.78;5013914;28;20219;-62
2023/11/01 03:46:01;;;;;;;1.60;1.50;;;;;;;10.88;75.33;99348.09;5013761;28;20203;-64
2023/11/01 03:48:29;;;;;;;1.70;1.50;;;;;;;10.86;75.41;99339.56;5013842;28;20199;-62
2023/11/01 03:50:59;;;;;;;1.90;1.70;;;;;;;10.83;75.27;99352.53;5013713;28;20259;-62
2023/11/01 03:53:27;;;;;;;1.70;1.60;;;;;;;10.80;75.55;99350.03;5013814;28;20206;-63
2023/11/01 03:55:55;;;;;;;1.67;1.53;;;;;;;10.77;75.67;99354.41;5013895;28;20203;-61
2023/11/01 03:58:23;;;;;;;3.77;1.83;;;;;;;10.76;75.58;99347.56;5013915;28;20211;-61
2023/11/01 04:00:51;;;;;;;2.87;1.80;;;;;;;10.74;75.59;99354.47;5013406;28;20203;-63
2023/11/01 04:03:19;;;;;;;1.90;1.70;;;;;;;10.70;75.55;99355.41;5013919;28;20805;-64
2023/11/01 04:05:47;;;;;;;2.00;1.73;;;;;;;10.69;75.58;99349.44;5013154;28;20353;-65
2023/11/01 04:08:16;;;;;;;2.10;1.90;;;;;;;10.72;75.51;99361.41;5013404;28;20262;-62
2023/11/01 04:10:45;;;;;;;2.10;1.77;;;;;;;10.74;75.29;99354.47;5013535;28;20203;-64
2023/11/01 04:13:13;;;;;;;2.90;1.70;;;;;;;10.70;75.44;99358.84;5013522;28;20246;-64
2023/11/01 04:15:40;;;;;;;3.00;1.83;;;;;;;10.70;75.36;99358.00;5013690;28;20650;-63
2023/11/01 04:18:09;;;;;;;2.20;1.73;;;;;;;10.73;75.35;99357.94;5042981;28;20237;-63
2023/11/01 04:20:37;;;;;;;2.10;1.60;;;;;;;10.67;75.48;99358.06;5053137;28;20565;-67
2023/11/01 04:23:05;;;;;;;2.33;1.87;;;;;;;10.64;75.49;99375.31;5052668;28;20222;-62
2023/11/01 04:25:35;;;;;;;4.10;1.80;;;;;;;10.54;75.21;99367.81;5052738;28;20213;-63
2023/11/01 04:28:02;;;;;;;2.07;1.47;;;;;;;10.48;75.17;99376.50;5052657;28;20237;-63
2023/11/01 04:30:38;;;;;;;3.10;1.70;;;;;;;10.38;75.46;99378.44;5052711;28;20217;-61
2023/11/01 04:33:07;;;;;;;3.00;2.20;;;;;;;10.34;75.44;99381.09;5052807;28;20611;-65
2023/11/01 04:35:36;;;;;;;2.90;1.57;;;;;;;10.30;75.13;99375.16;5052890;28;20259;-65
2023/11/01 04:38:04;;;;;;;1.80;1.70;;;;;;;10.30;74.74;99370.03;5052474;28;20206;-66
2023/11/01 04:40:32;;;;;;;1.83;1.60;;;;;;;10.25;74.46;99386.44;5038714;28;20664;-66
2023/11/01 04:43:01;;;;;;;1.80;1.70;;;;;;;10.26;74.38;99383.84;5052811;28;20744;-64
2023/11/01 04:45:31;;;;;;;2.17;1.70;;;;;;;10.27;73.95;99375.25;5052272;28;20209;-65
2023/11/01 04:47:59;;;;;;;1.30;1.20;;;;;;;10.28;73.25;99383.84;5052337;28;20732;-67
2023/11/01 04:50:28;;;;;;;1.77;1.40;;;;;;;10.27;72.89;99384.69;5052860;28;20649;-66
2023/11/01 04:52:57;;;;;;;5.60;1.87;;;;;;;10.25;72.12;99394.16;5052329;28;20703;-66
2023/11/01 04:55:25;;;;;;;1.70;1.47;;;;;;;10.16;72.03;99398.63;5052273;28;20542;-66
2023/11/01 04:57:53;;;;;;;1.17;1.13;;;;;;;10.14;72.21;99397.78;5052161;28;20206;-65
2023/11/01 05:00:22;;;;;;;1.33;1.10;;;;;;;10.11;72.42;99404.72;5052319;28;20241;-67
2023/11/01 05:02:51;;;;;;;3.53;1.20;;;;;;;10.11;72.32;99403.00;5050473;28;20214;-66
2023/11/01 05:05:19;;;;;;;1.63;1.43;;;;;;;10.13;72.23;99400.41;5052152;28;20264;-66
2023/11/01 05:07:47;;;;;;;2.37;1.50;;;;;;;10.12;72.38;99390.97;5051965;28;20241;-69
2023/11/01 05:10:16;;;;;;;1.87;1.43;;;;;;;10.12;72.41;99406.41;5051805;28;20216;-68
2023/11/01 05:12:45;;;;;;;1.67;1.57;;;;;;;10.13;72.67;99413.28;5052124;28;20668;-66
2023/11/01 05:15:13;;;;;;;1.93;1.33;;;;;;;10.13;72.33;99413.28;5052021;28;20304;-67
2023/11/01 05:17:42;;;;;;;2.07;1.80;;;;;;;10.12;72.84;99416.72;5051727;28;20241;-65
2023/11/01 05:20:11;;;;;;;3.03;1.77;;;;;;;10.08;72.83;99425.38;5038274;28;20206;-65
2023/11/01 05:22:39;;;;;;;1.97;1.70;;;;;;;10.07;72.99;99427.09;5051733;28;20226;-67
2023/11/01 05:25:13;;;;;;;3.27;2.10;;;;;;;10.06;73.51;99437.44;5051545;28;20202;-66
2023/11/01 05:27:42;;;;;;;2.13;1.50;;;;;;;10.03;73.77;99434.91;5051870;28;20224;-67
2023/11/01 05:30:14;;;;;;;1.80;1.70;;;;;;;10.00;74.12;99438.38;5051854;28;20202;-65
2023/11/01 05:32:45;;;;;;;2.13;2.03;;;;;;;10.01;74.51;99442.66;5051070;28;20198;-66
2023/11/01 05:35:14;;;;;;;1.80;1.60;;;;;;;10.01;74.38;99445.22;5051414;28;20252;-67
2023/11/01 05:37:43;;;;;;;2.20;1.97;;;;;;;9.94;74.61;99451.38;5051866;28;20557;-66
2023/11/01 05:40:15;;;;;;;3.20;2.00;;;;;;;9.91;74.73;99464.31;5051296;28;20336;-66
2023/11/01 05:42:44;;;;;;;2.63;2.00;;;;;;;9.83;74.70;99458.44;5051317;28;20241;-67
2023/11/01 05:45:15;;;;;;;3.07;1.77;;;;;;;9.82;74.75;99472.19;5051189;28;20202;-65
2023/11/01 05:47:49;;;;;;;2.87;1.83;;;;;;;9.71;74.19;99485.22;5051542;28;20206;-67
2023/11/01 05:50:23;;;;;;;1.80;1.40;;;;;;;9.67;73.96;99487.00;5051213;28;20197;-66
2023/11/01 05:52:52;;;;;;;1.90;1.60;;;;;;;9.64;73.87;99487.03;5051284;28;20572;-67
2023/11/01 05:55:20;;;;;;;4.07;1.63;;;;;;;9.61;73.43;99487.13;5051384;28;20576;-67
2023/11/01 05:58:00;;;;;;;1.43;1.20;;;;;;;9.65;72.97;99503.34;5050829;28;20559;-67
2023/11/01 06:00:28;;;;;;;1.67;1.30;;;;;;;9.72;72.81;99499.81;5050626;28;20209;-67
2023/11/01 06:02:57;;;;;;;1.50;1.30;;;;;;;9.80;72.64;99502.25;5049539;28;20562;-66
2023/11/01 06:05:25;;;;;;;1.33;1.20;;;;;;;9.84;71.98;99504.75;5064325;28;20213;-66
2023/11/01 06:07:53;;;;;;;1.37;1.27;;;;;;;9.79;71.73;99501.38;5053504;28;20202;-66
2023/11/01 06:10:22;;;;;;;1.43;1.10;;;;;;;9.84;71.39;99519.34;5050582;28;20201;-69
2023/11/01 06:12:50;;;;;;;3.50;1.40;;;;;;;9.87;71.11;99524.44;5050516;28;20202;-67
2023/11/01 06:15:18;;;;;;;3.73;1.27;;;;;;;9.88;70.81;99521.81;5051001;28;20546;-65
2023/11/01 06:17:47;;;;;;;2.07;1.30;;;;;;;9.88;70.68;99521.81;5050512;28;20764;-65
2023/11/01 06:20:17;;;;;;;1.53;1.00;;;;;;;9.89;70.37;99528.66;5050879;28;20647;-65
2023/11/01 06:22:45;;;;;;;3.50;1.17;;;;;;;9.84;70.67;99519.34;5050458;28;20233;-67
2023/11/01 06:25:14;;;;;;;3.07;1.10;;;;;;;9.92;70.42;99536.31;5050693;28;20206;-66
2023/11/01 06:27:42;;;;;;;1.73;1.40;;;;;;;9.93;69.74;99524.31;5050970;28;20229;-66
2023/11/01 06:30:11;;;;;;;1.40;1.30;;;;;;;9.97;69.42;99541.38;5049922;28;20209;-66
2023/11/01 06:32:39;;;;;;;1.40;1.30;;;;;;;9.99;68.88;99539.66;5050645;28;20681;-68
2023/11/01 06:35:07;;;;;;;1.83;1.47;;;;;;;9.90;68.60;99532.06;5050605;28;20541;-65
2023/11/01 06:37:37;;;;;;;4.23;1.20;;;;;;;9.83;69.15;99543.34;5050426;28;20202;-66
2023/11/01 06:40:06;;;;;;;1.70;1.60;;;;;;;9.74;69.35;99538.38;5050732;28;20683;-68
2023/11/01 06:42:34;;;;;;;1.70;1.30;;;;;;;9.71;70.01;99549.53;5050399;28;20237;-67
2023/11/01 06:45:02;;;;;;;1.83;1.60;;;;;;;9.78;70.11;99542.56;5050325;28;20232;-66
2023/11/01 06:47:30;;;;;;;2.77;1.80;;;;;;;9.82;70.01;99551.94;5050542;28;20271;-66
2023/11/01 06:49:58;;;;;;;1.70;1.60;;;;;;;9.83;70.04;99556.22;5050675;28;20210;-66
2023/11/01 06:52:26;;;;;;;8.67;1.60;;;;;;;9.85;70.94;99564.75;5050598;28;20624;-65
2023/11/01 06:54:55;;;;;;;1.20;1.10;;;;;;;9.89;70.77;99568.97;5050896;28;20649;-65
2023/11/01 06:57:23;;;;;;;2.03;1.50;;;;;;;9.86;70.84;99582.75;5050383;28;20217;-62
2023/11/01 06:59:51;;;;;;;1.50;1.40;;;;;;;9.91;70.52;99568.09;5049684;28;20202;-64
2023/11/01 07:02:19;;;;;;;1.77;1.50;;;;;;;10.01;70.54;99579.06;5048514;28;20213;-64
2023/11/01 07:04:48;;;;;;;2.63;1.53;;;;;;;10.10;70.65;99578.91;5049352;28;20598;-65
2023/11/01 07:07:16;;;;;;;2.40;1.50;;;;;;;10.09;69.75;99572.09;5049289;28;20291;-63
2023/11/01 07:09:47;;;;;;;2.23;1.70;;;;;;;10.11;69.49;99580.63;5050034;28;20288;-62
2023/11/01 07:12:16;;;;;;;1.73;1.63;;;;;;;10.15;69.17;99581.41;5054355;28;20221;-62
2023/11/01 07:14:44;;;;;;;1.57;1.47;;;;;;;10.15;69.15;99574.53;5054017;28;20205;-64
2023/11/01 07:17:12;;;;;;;2.03;1.37;;;;;;;10.24;69.31;99580.41;5053235;28;20252;-62
2023/11/01 07:19:41;;;;;;;2.20;1.40;;;;;;;10.27;68.65;99575.22;5053961;28;20661;-63
2023/11/01 07:22:10;;;;;;;1.70;1.40;;;;;;;10.26;68.21;99583.84;5053793;28;20210;-64
2023/11/01 07:24:38;;;;;;;1.47;1.37;;;;;;;10.20;68.51;99589.03;5053735;28;20214;-63
2023/11/01 07:27:06;;;;;;;1.43;1.30;;;;;;;10.15;68.65;99577.09;5053778;28;20206;-62
2023/11/01 07:29:35;;;;;;;1.70;1.47;;;;;;;10.12;68.77;99591.75;5054163;28;20685;-62
2023/11/01 07:32:04;;;;;;;1.77;1.50;;;;;;;10.18;68.81;99595.97;5053819;28;20198;-63
2023/11/01 07:34:32;;;;;;;1.70;1.30;;;;;;;10.12;68.46;99587.44;5053681;28;20205;-63
2023/11/01 07:37:00;;;;;;;1.30;1.20;;;;;;;10.14;68.19;99590.84;5053964;28;20653;-66
2023/11/01 07:39:28;;;;;;;2.87;1.40;;;;;;;10.12;67.73;99590.03;5054100;28;20661;-65
2023/11/01 07:41:56;;;;;;;1.60;1.20;;;;;;;10.15;67.91;99587.41;5053971;28;20202;-63
2023/11/01 07:44:23;;;;;;;1.10;1.10;;;;;;;10.17;67.10;99597.69;5053898;28;20632;-64
2023/11/01 07:46:53;;;;;;;2.03;1.07;;;;;;;10.20;66.57;99592.50;5053806;28;20210;-64
2023/11/01 07:49:21;;;;;;;1.30;1.20;;;;;;;10.29;65.66;99599.22;5062928;28;20216;-62
2023/11/01 07:51:49;;;;;;;1.50;1.20;;;;;;;10.33;64.50;99598.31;5052672;28;20213;-63
2023/11/01 07:54:17;;;;;;;1.20;1.10;;;;;;;10.34;64.49;99602.56;5053366;28;20244;-63
2023/11/01 07:56:45;;;;;;;1.10;1.00;;;;;;;10.34;64.41;99605.13;5053557;28;20210;-68
2023/11/01 07:59:13;;;;;;;1.30;1.03;;;;;;;10.40;63.97;99620.50;5053479;28;20202;-71
2023/11/01 08:01:41;;;;;;;1.20;1.10;;;;;;;10.44;63.76;99608.41;5053689;28;20563;-70
2023/11/01 08:04:10;;;;;;;2.83;1.07;;;;;;;10.48;63.21;99623.78;5051743;28;20210;-68
2023/11/01 08:06:39;;;;;;;2.17;1.20;;;;;;;10.54;63.25;99625.41;5053690;28;20590;-72
2023/11/01 08:09:07;;;;;;;1.73;1.10;;;;;;;10.48;62.97;99636.66;5053542;28;20201;-63
2023/11/01 08:11:35;;;;;;;1.77;1.30;;;;;;;10.48;62.48;99634.06;5053045;28;20277;-66
2023/11/01 08:14:03;;;;;;;1.97;1.03;;;;;;;10.55;62.92;99629.66;5063059;28;20653;-63
2023/11/01 08:16:31;;;;;;;6.57;1.30;;;;;;;10.53;61.77;99644.28;5054469;28;20202;-64
2023/11/01 08:18:59;;;;;;;1.30;1.10;;;;;;;10.50;62.47;99641.78;5052782;28;20202;-62
2023/11/01 08:21:28;;;;;;;2.63;1.20;;;;;;;10.53;62.48;99650.31;5052189;28;20260;-63
2023/11/01 08:23:56;;;;;;;1.50;1.20;;;;;;;10.42;61.99;99631.63;5053194;28;20218;-64
2023/11/01 08:26:24;;;;;;;2.30;1.50;;;;;;;10.23;62.73;99651.63;5052805;28;20233;-69
2023/11/01 08:28:52;;;;;;;1.20;1.10;;;;;;;10.09;63.42;99651.88;5053370;28;20644;-64
2023/11/01 08:31:21;;;;;;;1.30;1.20;;;;;;;10.06;63.59;99656.22;5052334;28;20602;-68
2023/11/01 08:33:49;;;;;;;1.40;0.90;;;;;;;10.10;64.29;99671.59;5053176;28;20606;-69
2023/11/01 08:36:17;;;;;;;1.03;0.90;;;;;;;10.15;63.36;99661.22;5053118;28;20252;-69
2023/11/01 08:38:46;;;;;;;0.93;0.80;;;;;;;10.13;62.73;99668.13;5052706;28;20225;-64
2023/11/01 08:41:14;;;;;;;1.17;0.87;;;;;;;10.02;61.53;99673.44;5052709;28;20272;-64
2023/11/01 08:43:44;;;;;;;1.10;0.97;;;;;;;9.88;60.98;99681.34;5052827;28;20726;-66
2023/11/01 08:46:12;;;;;;;0.70;0.70;;;;;;;9.91;61.23;99690.78;5052763;28;20198;-69
2023/11/01 08:48:40;;;;;;;2.57;1.13;;;;;;;9.99;60.68;99670.91;5052740;28;20587;-68
2023/11/01 08:51:08;;;;;;;1.53;0.73;;;;;;;10.08;59.69;99695.66;5052895;28;20653;-70
2023/11/01 08:53:37;;;;;;;2.13;0.80;;;;;;;10.12;59.06;99699.88;5052968;28;20586;-72
2023/11/01 08:56:08;;;;;;;1.03;0.70;;;;;;;10.16;58.89;99688.66;5052789;28;20541;-68
2023/11/01 08:58:36;;;;;;;2.47;0.80;;;;;;;10.14;59.02;99693.84;5052803;28;20565;-63
2023/11/01 09:01:04;;;;;;;3.07;1.37;;;;;;;10.12;59.31;99685.28;5051650;28;20636;-65
2023/11/01 09:03:32;;;;;;;1.57;0.83;;;;;;;10.22;58.89;99696.28;5052053;28;20638;-65
2023/11/01 09:06:00;;;;;;;1.37;0.90;;;;;;;10.34;58.90;99696.13;5050810;28;20209;-61
2023/11/01 09:08:28;;;;;;;1.20;0.90;;;;;;;10.34;58.86;99700.41;5052174;28;20280;-66
2023/11/01 09:10:57;;;;;;;1.83;1.03;;;;;;;10.35;58.96;99715.88;5051687;28;20198;-73
2023/11/01 09:13:26;;;;;;;0.70;0.70;;;;;;;10.32;58.90;99700.47;5052314;28;20653;-63
2023/11/01 09:15:54;;;;;;;1.00;0.90;;;;;;;10.30;59.04;99706.50;5052150;28;20236;-66
2023/11/01 09:18:22;;;;;;;2.00;1.23;;;;;;;10.24;59.25;99715.16;5051822;28;20244;-63
2023/11/01 09:20:51;;;;;;;1.00;0.90;;;;;;;10.17;59.73;99710.97;5051841;28;20209;-64
2023/11/01 09:23:19;;;;;;;1.60;0.87;;;;;;;10.16;59.90;99711.81;5051768;28;20202;-68
2023/11/01 09:25:47;;;;;;;1.00;0.90;;;;;;;10.14;59.97;99716.16;5052092;28;20707;-68
2023/11/01 09:28:15;;;;;;;1.43;0.80;;;;;;;10.11;59.33;99716.19;5051639;28;20276;-68
2023/11/01 09:30:44;;;;;;;1.10;0.80;;;;;;;10.06;59.64;99711.13;5051862;28;20212;-65
2023/11/01 09:33:12;;;;;;;3.10;1.20;;;;;;;10.06;60.17;99716.28;5050957;28;20616;-64
2023/11/01 09:35:40;;;;;;;1.23;0.87;;;;;;;10.07;59.40;99714.56;5055527;28;20284;-62
2023/11/01 09:38:08;;;;;;;3.33;1.07;;;;;;;10.04;59.56;99710.28;5057794;28;20293;-61
2023/11/01 09:40:36;;;;;;;1.57;1.00;;;;;;;10.02;59.37;99713.78;5051464;28;20226;-61
2023/11/01 09:43:08;;;;;;;2.37;1.00;;;;;;;9.99;59.83;99712.09;5050990;28;20282;-64
2023/11/01 09:45:37;;;;;;;1.10;0.60;;;;;;;10.02;60.40;99706.91;5051082;28;20206;-61
2023/11/01 09:48:07;;;;;;;1.37;1.07;;;;;;;10.01;59.89;99722.34;5051712;28;20206;-65
2023/11/01 09:50:37;;;;;;;2.20;0.90;;;;;;;9.91;60.12;99711.34;5051258;28;20210;-62
2023/11/01 09:53:05;;;;;;;1.57;0.80;;;;;;;9.93;59.65;99720.75;5051482;28;20212;-67
2023/11/01 09:55:33;;;;;;;0.70;0.70;;;;;;;9.97;59.56;99718.13;5051408;28;20256;-68
2023/11/01 09:58:03;;;;;;;0.70;0.70;;;;;;;9.99;59.52;99709.53;5037245;28;20288;-68
2023/11/01 10:00:31;;;;;;;2.00;0.50;;;;;;;10.00;59.07;99715.50;5051352;28;20233;-71
2023/11/01 10:03:00;;;;;;;1.80;0.70;;;;;;;9.96;58.12;99719.84;5051106;28;20202;-63
2023/11/01 10:05:29;;;;;;;0.83;0.67;;;;;;;9.92;57.59;99718.19;5051460;28;20664;-64
2023/11/01 10:07:57;;;;;;;1.30;0.70;;;;;;;9.93;57.32;99717.31;5048618;28;20209;-63
2023/11/01 10:10:25;;;;;;;1.33;0.87;;;;;;;9.89;56.64;99720.81;5051459;28;20210;-70
2023/11/01 10:12:53;;;;;;;0.73;0.73;;;;;;;9.89;57.47;99716.50;5050963;28;20699;-62
2023/11/01 10:15:22;;;;;;;0.90;0.80;;;;;;;9.96;57.42;99719.00;5051253;28;20730;-69
2023/11/01 10:17:52;;;;;;;5.00;1.13;;;;;;;10.11;57.53;99717.03;5050850;28;20279;-69
2023/11/01 10:20:25;;;;;;;0.67;0.60;;;;;;;10.20;57.00;99721.22;5050056;28;20282;-64
2023/11/01 10:22:55;;;;;;;2.90;0.77;;;;;;;10.30;57.05;99724.53;5052621;28;20210;-70
2023/11/01 10:25:23;;;;;;;5.20;1.00;;;;;;;10.27;56.23;99715.16;5050975;28;20216;-63
2023/11/01 10:27:54;;;;;;;1.17;0.80;;;;;;;10.35;56.26;99713.28;5050831;28;20205;-68
2023/11/01 10:30:22;;;;;;;1.87;0.70;;;;;;;10.40;55.91;99723.50;5051391;28;20202;-70
2023/11/01 10:32:55;;;;;;;1.17;1.00;;;;;;;10.42;55.83;99715.75;5051307;28;20213;-69
2023/11/01 10:35:24;;;;;;;0.70;0.70;;;;;;;10.43;55.45;99710.59;5049507;28;20311;-68
2023/11/01 10:37:58;;;;;;;1.03;0.63;;;;;;;10.51;55.60;99703.56;5051098;28;20248;-64
2023/11/01 10:40:27;;;;;;;1.30;1.00;;;;;;;10.56;55.85;99716.38;5050701;28;20204;-62
2023/11/01 10:42:58;;;;;;;1.17;0.73;;;;;;;10.59;55.24;99719.75;5050614;28;20225;-63
2023/11/01 10:45:27;;;;;;;1.13;1.03;;;;;;;10.59;55.23;99713.75;5052177;28;20268;-68
2023/11/01 10:47:55;;;;;;;1.03;0.80;;;;;;;10.58;54.92;99712.91;5054979;28;20210;-71
2023/11/01 10:50:23;;;;;;;0.90;0.80;;;;;;;10.57;54.52;99712.94;5053711;28;20664;-68
2023/11/01 10:52:52;;;;;;;0.70;0.70;;;;;;;10.59;54.61;99712.03;5054642;28;20204;-68
2023/11/01 10:55:24;;;;;;;0.80;0.80;;;;;;;10.59;54.46;99718.91;5055222;28;20248;-71
2023/11/01 10:57:52;;;;;;;2.13;0.80;;;;;;;10.60;54.24;99713.75;5054641;28;20206;-68
2023/11/01 11:00:26;;;;;;;1.83;0.87;;;;;;;10.57;53.55;99708.63;5055096;28;20313;-63
2023/11/01 11:03:11;;;;;;;2.10;0.70;;;;;;;10.56;54.22;99726.69;5054210;28;20526;-64
2023/11/01 11:05:42;;;;;;;1.20;0.63;;;;;;;10.50;54.35;99716.50;5054706;28;20651;-63
2023/11/01 11:08:11;;;;;;;0.83;0.70;;;;;;;10.55;54.25;99718.09;5052893;28;20289;-63
2023/11/01 11:10:42;;;;;;;2.53;0.70;;;;;;;10.64;54.77;99720.53;5054036;28;20560;-63
2023/11/01 11:13:31;;;;;;;2.10;0.70;;;;;;;10.69;54.95;99722.19;5054658;28;20614;-65
2023/11/01 11:16:02;;;;;;;3.00;0.90;;;;;;;10.70;55.35;99729.03;5050481;28;20263;-69
2023/11/01 11:18:57;;;;;;;1.90;0.90;;;;;;;10.70;55.65;99719.56;5054165;28;20639;-63
2023/11/01 11:22:02;;;;;;;3.17;1.03;;;;;;;10.75;55.94;99722.06;5049066;28;20604;-65
2023/11/01 11:24:47;;;;;;;1.70;0.80;;;;;;;10.74;56.18;99710.91;5054286;28;20202;-66
2023/11/01 11:27:51;;;;;;;1.63;1.10;;;;;;;10.80;56.50;99720.28;5054458;28;20626;-62
2023/11/01 11:31:05;;;;;;;1.87;0.90;;;;;;;10.84;56.38;99714.19;5053974;28;20229;-63
2023/11/01 11:33:34;;;;;;;1.43;0.80;;;;;;;10.89;56.67;99720.94;5044208;28;20209;-62
2023/11/01 11:36:15;;;;;;;2.07;1.00;;;;;;;10.97;56.57;99723.41;5054208;28;20217;-67
2023/11/01 11:38:51;;;;;;;2.23;1.20;;;;;;;11.02;56.84;99713.84;5053996;28;20214;-65
2023/11/01 11:41:21;;;;;;;1.93;1.10;;;;;;;11.15;56.94;99724.75;5053804;28;20292;-64
2023/11/01 11:44:01;;;;;;;1.50;1.00;;;;;;;11.38;56.88;99724.34;5053162;28;20213;-62